Time;durP1;ratioP1;P1;durP2;ratioP2;P2;SDS_P1;SDS_P2;PMS_P1;PMS_P2;Temp;Humidity;BMP_temperature;BMP_pressure;BME280_temperature;BME280_humidity;BME280_pressure;Samples;Min_cycle;Max_cycle;Signal;HPM_P1;HPM_P2
2022/06/20 00:01:14;;;;;;;2.22;1.00;;;;;;;;;;4957218;28;20149;-76
2022/06/20 00:03:43;;;;;;;3.75;1.10;;;;;;;;;;4973615;28;20035;-76
2022/06/20 00:06:11;;;;;;;2.35;0.90;;;;;;;;;;4957173;28;20092;-77
2022/06/20 00:08:37;;;;;;;3.75;1.20;;;;;;;;;;4973131;28;20118;-77
2022/06/20 00:11:02;;;;;;;2.42;1.00;;;;;;;;;;4973446;28;20110;-76
2022/06/20 00:13:33;;;;;;;2.38;1.00;;;;;;;;;;4941075;28;20052;-76
2022/06/20 00:16:02;;;;;;;4.07;1.27;;;;;;;;;;4973697;28;20019;-77
2022/06/20 00:18:29;;;;;;;2.05;1.00;;;;;;;;;;4973117;28;20463;-76
2022/06/20 00:20:54;;;;;;;3.50;1.35;;;;;;;;;;4973033;28;20042;-76
2022/06/20 00:23:20;;;;;;;2.35;0.90;;;;;;;;;;4956831;28;20055;-76
2022/06/20 00:25:45;;;;;;;2.97;1.15;;;;;;;;;;4956935;28;20038;-76
2022/06/20 00:28:12;;;;;;;2.17;0.85;;;;;;;;;;4957002;28;20126;-77
2022/06/20 00:30:38;;;;;;;1.70;0.93;;;;;;;;;;4973317;28;20529;-77
2022/06/20 00:33:04;;;;;;;1.40;0.90;;;;;;;;;;4973268;28;20039;-77
2022/06/20 00:35:29;;;;;;;4.53;1.20;;;;;;;;;;4973374;28;20158;-77
2022/06/20 00:37:57;;;;;;;2.25;0.90;;;;;;;;;;4973011;28;20104;-76
2022/06/20 00:40:36;;;;;;;2.05;1.00;;;;;;;;;;4956771;28;20519;-76
2022/06/20 00:43:03;;;;;;;3.47;1.10;;;;;;;;;;4973150;28;20126;-76
2022/06/20 00:45:32;;;;;;;3.60;1.23;;;;;;;;;;4956788;28;20023;-76
2022/06/20 00:48:04;;;;;;;6.38;1.10;;;;;;;;;;4972868;28;20533;-76
2022/06/20 00:50:32;;;;;;;3.63;1.25;;;;;;;;;;4957105;28;20387;-77
2022/06/20 00:53:03;;;;;;;1.88;0.90;;;;;;;;;;4973147;28;20100;-77
2022/06/20 00:55:46;;;;;;;1.88;1.05;;;;;;;;;;4956712;28;20030;-76
2022/06/20 00:58:47;;;;;;;1.98;0.98;;;;;;;;;;4956677;28;20023;-76
2022/06/20 01:01:14;;;;;;;1.75;1.00;;;;;;;;;;4970489;28;20491;-76
2022/06/20 01:03:45;;;;;;;2.40;0.90;;;;;;;;;;4956525;28;20058;-76
2022/06/20 01:06:20;;;;;;;2.80;1.02;;;;;;;;;;4956613;28;20023;-77
2022/06/20 01:08:52;;;;;;;3.05;1.33;;;;;;;;;;4972898;28;20031;-76
2022/06/20 01:11:26;;;;;;;4.32;1.20;;;;;;;;;;4956565;28;20053;-76
2022/06/20 01:13:51;;;;;;;4.15;1.25;;;;;;;;;;4973023;28;20383;-76
2022/06/20 01:16:32;;;;;;;2.72;1.10;;;;;;;;;;4972530;28;20038;-76
2022/06/20 01:19:00;;;;;;;2.58;1.10;;;;;;;;;;4973026;28;20038;-76
2022/06/20 01:21:31;;;;;;;1.60;0.82;;;;;;;;;;4972458;28;20030;-76
2022/06/20 01:24:06;;;;;;;2.65;1.00;;;;;;;;;;4956231;28;20089;-76
2022/06/20 01:26:54;;;;;;;2.13;1.17;;;;;;;;;;4972430;28;20136;-77
2022/06/20 01:29:19;;;;;;;2.33;1.00;;;;;;;;;;4972399;28;20034;-76
2022/06/20 01:31:54;;;;;;;3.50;1.00;;;;;;;;;;4976393;28;20475;-76
2022/06/20 01:34:20;;;;;;;2.53;1.05;;;;;;;;;;4959942;28;20062;-77
2022/06/20 01:39:37;;;;;;;3.35;1.10;;;;;;;;;;4976491;28;20045;-76
2022/06/20 01:42:19;;;;;;;1.95;0.90;;;;;;;;;;4976063;28;20551;-76
2022/06/20 01:44:56;;;;;;;1.45;0.90;;;;;;;;;;4961637;28;20030;-76
2022/06/20 01:47:21;;;;;;;4.68;1.17;;;;;;;;;;4976070;28;20034;-77
2022/06/20 01:49:49;;;;;;;2.95;1.20;;;;;;;;;;4959701;28;20030;-77
2022/06/20 01:52:19;;;;;;;2.75;1.13;;;;;;;;;;4976043;28;20124;-77
2022/06/20 01:54:52;;;;;;;4.40;0.98;;;;;;;;;;4976873;28;20101;-76
2022/06/20 01:57:18;;;;;;;1.45;0.80;;;;;;;;;;4959501;28;20133;-76
2022/06/20 01:59:58;;;;;;;2.30;1.00;;;;;;;;;;4975610;28;20030;-76
2022/06/20 02:02:24;;;;;;;2.47;1.00;;;;;;;;;;4976763;28;20065;-76
2022/06/20 02:04:50;;;;;;;3.22;0.80;;;;;;;;;;4959398;28;20027;-76
2022/06/20 02:07:16;;;;;;;1.73;0.93;;;;;;;;;;4959355;28;20035;-76
2022/06/20 02:09:42;;;;;;;3.85;1.00;;;;;;;;;;4959141;28;20046;-76
2022/06/20 02:12:09;;;;;;;3.58;1.08;;;;;;;;;;4959129;28;20027;-76
2022/06/20 02:14:37;;;;;;;2.08;1.25;;;;;;;;;;4959212;28;20372;-76
2022/06/20 02:17:32;;;;;;;2.55;1.20;;;;;;;;;;4976726;28;20483;-76
2022/06/20 02:19:59;;;;;;;3.58;1.27;;;;;;;;;;4973964;28;20039;-76
2022/06/20 02:22:25;;;;;;;3.88;1.08;;;;;;;;;;4974870;28;20424;-77
2022/06/20 02:24:54;;;;;;;3.15;1.00;;;;;;;;;;4975496;28;20062;-76
2022/06/20 02:27:24;;;;;;;4.22;1.08;;;;;;;;;;4975148;28;20061;-76
2022/06/20 02:29:50;;;;;;;5.63;1.00;;;;;;;;;;4975369;28;20089;-76
2022/06/20 02:32:18;;;;;;;2.08;1.00;;;;;;;;;;4975009;28;20034;-76
2022/06/20 02:34:43;;;;;;;2.75;1.02;;;;;;;;;;4974978;28;20038;-76
2022/06/20 02:37:11;;;;;;;3.70;1.23;;;;;;;;;;4958820;28;20022;-76
2022/06/20 02:39:40;;;;;;;2.08;1.10;;;;;;;;;;4958606;28;20062;-76
2022/06/20 02:42:10;;;;;;;3.45;1.10;;;;;;;;;;4973745;28;20041;-76
2022/06/20 02:44:35;;;;;;;2.40;1.25;;;;;;;;;;4974954;28;20030;-77
2022/06/20 02:47:06;;;;;;;1.17;0.70;;;;;;;;;;4975138;28;20054;-77
2022/06/20 02:49:32;;;;;;;2.70;1.20;;;;;;;;;;4975030;28;20510;-77
2022/06/20 02:51:59;;;;;;;2.85;1.10;;;;;;;;;;4975918;28;20368;-77
2022/06/20 02:54:28;;;;;;;3.28;1.17;;;;;;;;;;4974893;28;20027;-76
2022/06/20 02:56:59;;;;;;;1.65;0.90;;;;;;;;;;4958495;28;20033;-76
2022/06/20 02:59:30;;;;;;;1.85;1.00;;;;;;;;;;4975002;28;20031;-77
2022/06/20 03:02:02;;;;;;;2.53;1.10;;;;;;;;;;4974897;28;20034;-77
2022/06/20 03:04:30;;;;;;;3.72;1.00;;;;;;;;;;4974438;28;20023;-77
2022/06/20 03:07:02;;;;;;;2.45;1.20;;;;;;;;;;4974637;28;20062;-77
2022/06/20 03:09:31;;;;;;;2.28;1.10;;;;;;;;;;4958063;28;20034;-77
2022/06/20 03:11:56;;;;;;;3.50;1.35;;;;;;;;;;4974549;28;20038;-77
2022/06/20 03:14:36;;;;;;;1.75;1.08;;;;;;;;;;4974208;28;20475;-76
2022/06/20 03:17:01;;;;;;;2.15;1.20;;;;;;;;;;4974227;28;20058;-76
2022/06/20 03:19:31;;;;;;;2.42;1.00;;;;;;;;;;4958436;28;20106;-77
2022/06/20 03:21:57;;;;;;;4.20;1.23;;;;;;;;;;4973938;28;20027;-76
2022/06/20 03:24:24;;;;;;;2.13;1.00;;;;;;;;;;4975049;28;20089;-76
2022/06/20 03:26:51;;;;;;;4.55;1.10;;;;;;;;;;4958687;28;20551;-77
2022/06/20 03:29:18;;;;;;;2.20;1.17;;;;;;;;;;4957757;28;20058;-76
2022/06/20 03:31:43;;;;;;;2.30;1.27;;;;;;;;;;4974088;28;20073;-77
2022/06/20 03:34:10;;;;;;;2.67;1.10;;;;;;;;;;4974012;28;20039;-77
2022/06/20 03:36:35;;;;;;;3.95;1.25;;;;;;;;;;4957688;28;20027;-76
2022/06/20 03:39:01;;;;;;;2.45;1.30;;;;;;;;;;4974363;28;20030;-76
2022/06/20 03:41:27;;;;;;;2.17;1.15;;;;;;;;;;4973926;28;20038;-76
2022/06/20 03:44:12;;;;;;;2.28;0.95;;;;;;;;;;4975171;28;20030;-76
2022/06/20 03:46:46;;;;;;;4.53;1.33;;;;;;;;;;4973629;28;20054;-76
2022/06/20 03:49:20;;;;;;;4.32;1.45;;;;;;;;;;4973655;28;20377;-76
2022/06/20 03:51:49;;;;;;;3.78;1.20;;;;;;;;;;4957527;28;20458;-77
2022/06/20 03:54:18;;;;;;;3.03;1.25;;;;;;;;;;4973264;28;20053;-77
2022/06/20 03:57:11;;;;;;;3.70;1.13;;;;;;;;;;4975240;28;20416;-77
2022/06/20 03:59:44;;;;;;;3.05;1.17;;;;;;;;;;4971480;28;20034;-76
2022/06/20 04:02:24;;;;;;;4.65;1.25;;;;;;;;;;4973733;28;20392;-76
2022/06/20 04:05:05;;;;;;;2.42;1.42;;;;;;;;;;4957137;28;20093;-76
2022/06/20 04:07:36;;;;;;;4.80;1.10;;;;;;;;;;4974541;28;20467;-77
2022/06/20 04:13:09;;;;;;;5.57;1.48;;;;;;;;;;4974464;28;20068;-77
2022/06/20 04:15:42;;;;;;;5.78;1.35;;;;;;;;;;4973258;28;20031;-77
2022/06/20 04:18:27;;;;;;;1.90;1.27;;;;;;;;;;4957107;28;20035;-78
2022/06/20 04:21:03;;;;;;;4.95;1.63;;;;;;;;;;4973160;28;20022;-77
2022/06/20 04:23:54;;;;;;;4.80;1.40;;;;;;;;;;4973022;28;20166;-77
2022/06/20 04:26:25;;;;;;;5.68;1.52;;;;;;;;;;4970804;28;20034;-78
2022/06/20 04:28:57;;;;;;;8.38;2.33;;;;;;;;;;4973049;28;20022;-76
2022/06/20 04:31:37;;;;;;;5.13;1.83;;;;;;;;;;4972925;28;20023;-76
2022/06/20 04:34:17;;;;;;;7.90;2.00;;;;;;;;;;4973181;28;20030;-77
2022/06/20 04:36:56;;;;;;;5.65;1.70;;;;;;;;;;4974219;28;20018;-78
2022/06/20 04:39:30;;;;;;;4.30;1.73;;;;;;;;;;4973598;28;20471;-78
2022/06/20 04:42:38;;;;;;;3.65;1.67;;;;;;;;;;4973546;28;20049;-76
2022/06/20 04:45:11;;;;;;;3.40;1.70;;;;;;;;;;4900207;29;20063;-76
2022/06/20 04:47:40;;;;;;;5.45;1.60;;;;;;;;;;4898695;29;20036;-76
2022/06/20 04:50:09;;;;;;;3.03;1.70;;;;;;;;;;4898840;29;20396;-79
2022/06/20 04:52:35;;;;;;;2.15;1.27;;;;;;;;;;4914415;29;20032;-77
2022/06/20 04:55:01;;;;;;;4.28;1.67;;;;;;;;;;4914632;29;20507;-79
2022/06/20 04:57:28;;;;;;;15.20;4.38;;;;;;;;;;4914686;29;20122;-76
2022/06/20 04:59:59;;;;;;;47.00;9.30;;;;;;;;;;4898636;29;20474;-77
2022/06/20 05:02:25;;;;;;;22.10;5.32;;;;;;;;;;4898803;29;20548;-77
2022/06/20 05:04:53;;;;;;;16.75;4.55;;;;;;;;;;4914116;29;20517;-77
2022/06/20 05:07:23;;;;;;;15.70;4.55;;;;;;;;;;4902413;29;20048;-77
2022/06/20 05:10:29;;;;;;;15.43;4.45;;;;;;;;;;4902040;29;20493;-78
2022/06/20 05:12:59;;;;;;;10.80;3.88;;;;;;;;;;4888653;29;20052;-78
2022/06/20 05:15:33;;;;;;;14.35;3.85;;;;;;;;;;4903373;29;20111;-76
2022/06/20 05:18:01;;;;;;;11.38;3.47;;;;;;;;;;4906676;28;20032;-78
2022/06/20 05:20:31;;;;;;;15.13;5.22;;;;;;;;;;4976450;28;20471;-77
2022/06/20 05:23:03;;;;;;;13.63;4.10;;;;;;;;;;4976938;28;20051;-76
2022/06/20 05:25:30;;;;;;;14.05;4.20;;;;;;;;;;4978232;28;20352;-77
2022/06/20 05:28:00;;;;;;;17.73;4.78;;;;;;;;;;4976280;28;20031;-77
2022/06/20 05:30:31;;;;;;;15.18;3.75;;;;;;;;;;4976268;28;20054;-77
2022/06/20 05:33:01;;;;;;;9.23;3.40;;;;;;;;;;4960093;28;20419;-80
2022/06/20 05:35:39;;;;;;;7.07;3.08;;;;;;;;;;4977706;28;20027;-79
2022/06/20 05:38:18;;;;;;;11.00;2.90;;;;;;;;;;4976522;28;20023;-78
2022/06/20 05:40:50;;;;;;;10.85;3.05;;;;;;;;;;4978508;28;20468;-77
2022/06/20 05:43:22;;;;;;;10.88;3.58;;;;;;;;;;4976671;28;20491;-77
2022/06/20 05:45:53;;;;;;;8.85;3.45;;;;;;;;;;4961273;28;20026;-77
2022/06/20 05:48:22;;;;;;;13.48;3.70;;;;;;;;;;4976605;28;20081;-78
2022/06/20 05:50:55;;;;;;;10.57;3.40;;;;;;;;;;4976657;28;20109;-78
2022/06/20 05:53:25;;;;;;;7.18;2.67;;;;;;;;;;4978198;28;20038;-77
2022/06/20 05:55:53;;;;;;;7.80;2.40;;;;;;;;;;4976659;28;20023;-77
2022/06/20 05:58:22;;;;;;;9.40;3.25;;;;;;;;;;4959796;28;20033;-77
2022/06/20 06:00:51;;;;;;;8.57;2.58;;;;;;;;;;4976340;28;20114;-77
2022/06/20 06:03:39;;;;;;;12.63;3.25;;;;;;;;;;4959957;28;20027;-77
2022/06/20 06:06:10;;;;;;;11.02;3.45;;;;;;;;;;4975439;28;20022;-77
2022/06/20 06:08:46;;;;;;;7.55;2.80;;;;;;;;;;4975672;28;20037;-77
2022/06/20 06:11:18;;;;;;;6.50;2.63;;;;;;;;;;4975491;28;20034;-77
2022/06/20 06:13:49;;;;;;;10.43;3.13;;;;;;;;;;4977053;28;20077;-77
2022/06/20 06:19:12;;;;;;;5.03;2.30;;;;;;;;;;4975886;28;20037;-77
2022/06/20 06:21:37;;;;;;;6.72;2.53;;;;;;;;;;4976583;28;20122;-77
2022/06/20 06:24:05;;;;;;;4.00;2.20;;;;;;;;;;4958727;28;20082;-77
2022/06/20 06:26:31;;;;;;;7.43;2.60;;;;;;;;;;4974872;28;20101;-78
2022/06/20 06:28:56;;;;;;;6.50;2.60;;;;;;;;;;4974263;28;20066;-78
2022/06/20 06:31:28;;;;;;;6.95;2.17;;;;;;;;;;4957959;28;20057;-77
2022/06/20 06:34:00;;;;;;;5.30;2.08;;;;;;;;;;4974033;28;20038;-77
2022/06/20 06:36:32;;;;;;;6.15;2.42;;;;;;;;;;4974020;28;20023;-77
2022/06/20 06:39:32;;;;;;;6.20;2.22;;;;;;;;;;4973702;28;20534;-77
2022/06/20 06:42:00;;;;;;;5.20;2.30;;;;;;;;;;4974473;28;20031;-77
2022/06/20 06:44:41;;;;;;;6.47;2.25;;;;;;;;;;4974134;28;20037;-77
2022/06/20 06:47:17;;;;;;;6.13;2.47;;;;;;;;;;4974060;28;20483;-77
2022/06/20 06:49:45;;;;;;;4.45;2.42;;;;;;;;;;4957630;28;20395;-77
2022/06/20 06:52:14;;;;;;;3.67;1.75;;;;;;;;;;4974196;28;20058;-77
2022/06/20 06:54:42;;;;;;;5.00;2.22;;;;;;;;;;4973711;28;20145;-77
2022/06/20 06:57:16;;;;;;;4.65;1.83;;;;;;;;;;4973725;28;20480;-77
2022/06/20 07:00:13;;;;;;;4.50;2.22;;;;;;;;;;4973762;28;20030;-78
2022/06/20 07:02:42;;;;;;;3.55;1.80;;;;;;;;;;4974742;28;20078;-79
2022/06/20 07:05:22;;;;;;;4.00;1.85;;;;;;;;;;4973790;28;20033;-77
2022/06/20 07:08:05;;;;;;;3.53;2.00;;;;;;;;;;4974248;28;20070;-76
2022/06/20 07:10:36;;;;;;;3.60;1.55;;;;;;;;;;4959001;28;20392;-79
2022/06/20 07:13:39;;;;;;;5.43;1.58;;;;;;;;;;4975250;28;20034;-78
2022/06/20 07:16:18;;;;;;;2.70;1.50;;;;;;;;;;4974464;28;20039;-76
2022/06/20 07:18:47;;;;;;;3.38;1.58;;;;;;;;;;4973059;28;20035;-78
2022/06/20 07:21:17;;;;;;;3.25;1.65;;;;;;;;;;4973643;28;20403;-79
2022/06/20 07:23:45;;;;;;;3.22;1.60;;;;;;;;;;4926680;28;1190333;-77
2022/06/20 07:26:12;;;;;;;4.53;1.58;;;;;;;;;;4969474;28;20034;-77
2022/06/20 07:28:46;;;;;;;4.32;1.75;;;;;;;;;;4973907;28;20099;-77
2022/06/20 07:31:22;;;;;;;5.07;1.55;;;;;;;;;;4974493;28;20105;-77
2022/06/20 07:33:59;;;;;;;3.53;1.67;;;;;;;;;;4973878;28;20023;-77
2022/06/20 07:36:29;;;;;;;5.00;1.70;;;;;;;;;;4974387;28;20031;-78
2022/06/20 07:39:02;;;;;;;3.63;1.73;;;;;;;;;;4974141;28;20023;-77
2022/06/20 07:41:39;;;;;;;4.82;1.83;;;;;;;;;;4957988;28;20045;-78
2022/06/20 07:44:06;;;;;;;3.95;1.90;;;;;;;;;;4975145;28;20030;-78
2022/06/20 07:46:45;;;;;;;4.03;2.00;;;;;;;;;;4974741;28;20069;-81
2022/06/20 07:49:22;;;;;;;3.00;1.55;;;;;;;;;;4974386;28;20026;-80
2022/06/20 07:51:50;;;;;;;4.80;1.80;;;;;;;;;;4974424;28;20047;-79
2022/06/20 07:54:24;;;;;;;4.60;1.48;;;;;;;;;;4974471;28;20479;-78
2022/06/20 07:57:12;;;;;;;2.92;1.20;;;;;;;;;;4958174;28;20105;-81
2022/06/20 07:59:55;;;;;;;7.60;1.60;;;;;;;;;;4968751;28;20035;-79
2022/06/20 08:02:32;;;;;;;3.17;1.58;;;;;;;;;;4973970;28;20027;-85
2022/06/20 08:04:59;;;;;;;6.80;1.77;;;;;;;;;;4957852;28;20111;-81
2022/06/20 08:07:39;;;;;;;4.82;1.70;;;;;;;;;;4973919;28;20073;-80
2022/06/20 08:10:11;;;;;;;4.28;1.83;;;;;;;;;;4957530;28;20023;-80
2022/06/20 08:12:49;;;;;;;4.72;1.60;;;;;;;;;;4973752;28;20142;-80
2022/06/20 08:15:23;;;;;;;5.57;2.00;;;;;;;;;;4974015;28;20042;-79
2022/06/20 08:17:48;;;;;;;;;;;;;;;;;;4975397;28;20031;-79
2022/06/20 08:20:15;;;;;;;4.72;1.48;;;;;;;;;;4977553;28;19925;-79
2022/06/20 08:22:56;;;;;;;4.43;1.85;;;;;;;;;;4957845;28;20019;-78
2022/06/20 08:25:25;;;;;;;5.30;1.85;;;;;;;;;;4974626;28;20447;-77
2022/06/20 08:27:55;;;;;;;2.83;1.73;;;;;;;;;;4957782;28;20026;-77
2022/06/20 08:30:28;;;;;;;3.75;1.63;;;;;;;;;;4976221;28;20027;-79
2022/06/20 08:33:33;;;;;;;3.50;1.30;;;;;;;;;;4977637;28;20428;-79
2022/06/20 08:36:17;;;;;;;4.22;1.50;;;;;;;;;;4976564;28;20031;-81
2022/06/20 08:38:54;;;;;;;2.90;1.48;;;;;;;;;;4960082;28;20117;-77
2022/06/20 08:41:40;;;;;;;4.95;1.40;;;;;;;;;;4959654;28;20027;-78
2022/06/20 08:44:43;;;;;;;3.15;1.40;;;;;;;;;;4974833;28;20531;-77
2022/06/20 08:47:32;;;;;;;5.25;1.67;;;;;;;;;;4975687;28;20460;-77
2022/06/20 08:50:35;;;;;;;4.18;1.58;;;;;;;;;;4972209;28;20054;-80
2022/06/20 08:53:10;;;;;;;4.88;1.60;;;;;;;;;;4975508;28;20153;-79
2022/06/20 08:55:38;;;;;;;2.42;1.35;;;;;;;;;;4974278;28;20499;-79
2022/06/20 08:58:28;;;;;;;5.50;1.60;;;;;;;;;;4972590;28;20031;-79
2022/06/20 09:01:24;;;;;;;3.45;1.50;;;;;;;;;;4973216;28;20062;-79
2022/06/20 09:04:18;;;;;;;2.83;1.58;;;;;;;;;;4972947;28;20033;-79
2022/06/20 09:07:13;;;;;;;5.25;1.80;;;;;;;;;;4973147;28;20031;-78
2022/06/20 09:09:57;;;;;;;3.83;1.75;;;;;;;;;;4973616;28;20035;-77
2022/06/20 09:12:46;;;;;;;6.70;1.92;;;;;;;;;;4973380;28;20085;-76
2022/06/20 09:15:19;;;;;;;6.50;1.60;;;;;;;;;;4973354;28;20027;-76
2022/06/20 09:18:19;;;;;;;2.25;1.50;;;;;;;;;;4973589;28;20035;-76
2022/06/20 09:20:48;;;;;;;3.92;1.40;;;;;;;;;;4973248;28;20023;-75
2022/06/20 09:23:14;;;;;;;5.88;1.88;;;;;;;;;;4973285;28;20162;-76
2022/06/20 09:26:05;;;;;;;8.48;1.90;;;;;;;;;;4973804;28;20027;-75
2022/06/20 09:28:40;;;;;;;3.70;1.45;;;;;;;;;;4972796;28;20043;-75
2022/06/20 09:31:29;;;;;;;4.50;1.55;;;;;;;;;;4973745;28;20029;-75
2022/06/20 09:34:26;;;;;;;2.22;1.50;;;;;;;;;;4972652;28;20483;-76
2022/06/20 09:36:59;;;;;;;3.33;1.13;;;;;;;;;;4972526;28;20035;-77
2022/06/20 09:39:52;;;;;;;2.92;1.33;;;;;;;;;;4972904;28;20042;-76
2022/06/20 09:42:57;;;;;;;8.52;1.15;;;;;;;;;;4973925;28;20031;-77
2022/06/20 09:45:26;;;;;;;2.67;1.27;;;;;;;;;;4974069;28;20031;-76
2022/06/20 09:48:13;;;;;;;2.17;1.27;;;;;;;;;;4957343;28;20026;-76
2022/06/20 09:51:03;;;;;;;3.88;1.20;;;;;;;;;;4972647;28;20031;-75
2022/06/20 09:54:06;;;;;;;2.05;1.23;;;;;;;;;;4976448;28;20023;-76
2022/06/20 09:56:50;;;;;;;2.13;1.17;;;;;;;;;;4975927;28;20023;-76
2022/06/20 09:59:43;;;;;;;4.80;1.38;;;;;;;;;;4977831;28;20540;-76
2022/06/20 10:02:29;;;;;;;1.92;0.95;;;;;;;;;;4977506;28;20471;-76
2022/06/20 10:05:20;;;;;;;1.88;1.10;;;;;;;;;;4959781;28;20026;-77
2022/06/20 10:07:52;;;;;;;2.15;1.00;;;;;;;;;;4977939;28;20026;-77
2022/06/20 10:11:02;;;;;;;1.55;1.08;;;;;;;;;;4976444;28;20030;-76
2022/06/20 10:13:37;;;;;;;3.78;1.30;;;;;;;;;;4917790;29;20109;-76
2022/06/20 10:16:28;;;;;;;3.03;1.17;;;;;;;;;;4903117;29;20032;-76
2022/06/20 10:19:46;;;;;;;3.22;1.30;;;;;;;;;;4960958;28;20117;-77
2022/06/20 10:22:20;;;;;;;3.60;1.08;;;;;;;;;;4940127;28;20372;-76
2022/06/20 10:25:00;;;;;;;4.13;1.35;;;;;;;;;;4976290;28;20055;-77
2022/06/20 10:27:45;;;;;;;2.60;1.17;;;;;;;;;;4975851;28;20034;-78
2022/06/20 10:30:18;;;;;;;3.88;1.67;;;;;;;;;;4975992;28;20037;-77
2022/06/20 10:33:16;;;;;;;2.70;1.10;;;;;;;;;;4975726;28;20027;-79
2022/06/20 10:36:02;;;;;;;4.70;1.38;;;;;;;;;;4975773;28;20033;-77
2022/06/20 10:38:43;;;;;;;4.50;1.35;;;;;;;;;;4977629;28;20081;-77
2022/06/20 10:41:16;;;;;;;2.95;1.48;;;;;;;;;;4959254;28;20038;-77
2022/06/20 10:43:53;;;;;;;4.15;1.38;;;;;;;;;;4975446;28;20462;-77
2022/06/20 10:46:25;;;;;;;2.47;1.42;;;;;;;;;;4959477;28;20034;-77
2022/06/20 10:49:09;;;;;;;3.38;1.23;;;;;;;;;;4975872;28;20027;-77
2022/06/20 10:51:43;;;;;;;2.75;1.38;;;;;;;;;;4975317;28;20106;-78
2022/06/20 10:54:22;;;;;;;4.10;1.60;;;;;;;;;;4959489;28;20495;-78
2022/06/20 10:56:57;;;;;;;2.28;1.23;;;;;;;;;;4975198;28;20035;-78
2022/06/20 10:59:38;;;;;;;3.33;1.02;;;;;;;;;;4975511;28;20027;-77
2022/06/20 11:02:15;;;;;;;3.03;1.42;;;;;;;;;;4975103;28;20118;-78
2022/06/20 11:05:06;;;;;;;3.42;1.20;;;;;;;;;;4976927;28;20034;-77
2022/06/20 11:07:49;;;;;;;6.43;1.20;;;;;;;;;;4975200;28;20058;-77
2022/06/20 11:10:40;;;;;;;2.38;1.13;;;;;;;;;;4974288;28;20030;-77
2022/06/20 11:13:28;;;;;;;3.58;1.13;;;;;;;;;;4976301;28;20038;-77
2022/06/20 11:16:22;;;;;;;2.83;1.30;;;;;;;;;;4974918;28;20029;-77
2022/06/20 11:18:48;;;;;;;;;;;;;;;;;;4976209;28;20034;-78
2022/06/20 11:21:32;;;;;;;4.35;1.40;;;;;;;;;;4974148;28;20275;-77
2022/06/20 11:24:01;;;;;;;3.08;1.42;;;;;;;;;;4976396;28;20054;-78
2022/06/20 11:26:38;;;;;;;3.22;1.50;;;;;;;;;;4975776;28;20475;-76
2022/06/20 11:29:19;;;;;;;6.82;1.38;;;;;;;;;;4959101;28;20038;-77
2022/06/20 11:31:56;;;;;;;4.15;1.27;;;;;;;;;;4975058;28;20383;-78
2022/06/20 11:34:27;;;;;;;2.97;1.15;;;;;;;;;;4974983;28;20027;-77
2022/06/20 11:37:12;;;;;;;6.80;1.52;;;;;;;;;;4974691;28;20065;-77
2022/06/20 11:40:04;;;;;;;3.53;1.15;;;;;;;;;;4975415;28;20031;-77
2022/06/20 11:43:13;;;;;;;7.57;1.33;;;;;;;;;;4975609;28;20038;-76
2022/06/20 11:45:55;;;;;;;6.85;1.65;;;;;;;;;;4932529;28;20129;-77
2022/06/20 11:48:26;;;;;;;6.10;1.30;;;;;;;;;;4975096;28;20027;-77
2022/06/20 11:51:16;;;;;;;2.30;1.02;;;;;;;;;;4974210;28;20026;-77
2022/06/20 11:53:57;;;;;;;3.40;1.20;;;;;;;;;;4975274;28;20045;-76
2022/06/20 11:56:38;;;;;;;5.10;1.38;;;;;;;;;;4975200;28;20033;-76
2022/06/20 11:59:15;;;;;;;3.42;1.33;;;;;;;;;;4973604;28;20033;-77
2022/06/20 12:01:50;;;;;;;6.70;1.40;;;;;;;;;;4973497;28;20085;-77
2022/06/20 12:04:22;;;;;;;3.97;1.30;;;;;;;;;;4973500;28;20050;-77
2022/06/20 12:07:04;;;;;;;3.65;1.40;;;;;;;;;;4973830;28;20026;-77
2022/06/20 12:09:44;;;;;;;3.67;1.30;;;;;;;;;;4973762;28;20494;-78
2022/06/20 12:12:27;;;;;;;4.30;1.58;;;;;;;;;;4958448;28;20031;-79
2022/06/20 12:15:30;;;;;;;2.85;1.48;;;;;;;;;;4974346;28;20364;-77
2022/06/20 12:18:14;;;;;;;6.85;1.83;;;;;;;;;;4975054;28;20033;-79
2022/06/20 12:23:26;;;;;;;;;;;;;;;;;;4989184;28;20347;-76
2022/06/20 12:26:06;;;;;;;6.70;1.90;;;;;;;;;;4990079;28;20323;-76
2022/06/20 12:28:40;;;;;;;6.70;2.10;;;;;;;;;;4974344;28;20034;-76
2022/06/20 12:31:18;;;;;;;5.65;2.13;;;;;;;;;;4974278;28;20023;-77
2022/06/20 12:33:50;;;;;;;6.97;1.80;;;;;;;;;;4973230;28;20475;-77
2022/06/20 12:36:33;;;;;;;7.80;2.20;;;;;;;;;;4973435;28;20463;-77
2022/06/20 12:39:12;;;;;;;5.55;1.98;;;;;;;;;;4974140;28;20425;-77
2022/06/20 12:41:43;;;;;;;4.32;1.40;;;;;;;;;;4973303;28;20440;-77
2022/06/20 12:44:24;;;;;;;4.90;1.60;;;;;;;;;;4973608;28;20162;-77
2022/06/20 12:47:17;;;;;;;5.88;1.83;;;;;;;;;;4957432;28;20054;-76
2022/06/20 12:49:51;;;;;;;3.20;1.50;;;;;;;;;;4974624;28;20105;-76
2022/06/20 12:52:24;;;;;;;4.75;1.75;;;;;;;;;;4974765;28;20058;-75
2022/06/20 12:55:11;;;;;;;3.40;1.50;;;;;;;;;;4973224;28;20484;-75
2022/06/20 12:57:37;;;;;;;4.80;2.00;;;;;;;;;;4974830;28;20051;-76
2022/06/20 13:00:23;;;;;;;3.58;1.60;;;;;;;;;;4973016;28;20049;-76
2022/06/20 13:03:13;;;;;;;2.92;1.65;;;;;;;;;;4974501;28;20480;-77
2022/06/20 13:06:04;;;;;;;3.65;1.58;;;;;;;;;;4973534;28;20030;-77
2022/06/20 13:08:41;;;;;;;5.35;1.60;;;;;;;;;;4974600;28;20106;-78
2022/06/20 13:11:13;;;;;;;3.47;1.50;;;;;;;;;;4975818;28;20031;-76
2022/06/20 13:14:15;;;;;;;2.75;1.40;;;;;;;;;;4974340;28;20038;-77
2022/06/20 13:17:02;;;;;;;4.38;1.67;;;;;;;;;;4973224;28;20031;-76
2022/06/20 13:19:36;;;;;;;3.20;1.25;;;;;;;;;;4974504;28;20027;-77
2022/06/20 13:22:19;;;;;;;3.30;1.50;;;;;;;;;;4974656;28;20078;-77
2022/06/20 13:25:10;;;;;;;4.33;1.67;;;;;;;;;;4972349;28;20411;-77
2022/06/20 13:28:00;;;;;;;5.80;1.38;;;;;;;;;;4949271;28;20046;-77
2022/06/20 13:30:45;;;;;;;3.25;1.40;;;;;;;;;;4960154;28;20027;-78
2022/06/20 13:33:17;;;;;;;2.05;1.10;;;;;;;;;;4976286;28;20039;-77
2022/06/20 13:35:47;;;;;;;4.15;1.40;;;;;;;;;;4977984;28;20030;-76
2022/06/20 13:38:46;;;;;;;1.63;1.30;;;;;;;;;;4976372;28;20538;-76
2022/06/20 13:41:24;;;;;;;5.28;1.48;;;;;;;;;;4978956;28;20459;-77
2022/06/20 13:44:04;;;;;;;4.32;1.25;;;;;;;;;;4977177;28;20037;-76
2022/06/20 13:47:10;;;;;;;2.15;1.10;;;;;;;;;;4959733;28;20387;-77
2022/06/20 13:49:58;;;;;;;3.30;1.23;;;;;;;;;;4959916;28;20558;-76
2022/06/20 13:52:28;;;;;;;3.45;1.23;;;;;;;;;;4976202;28;20019;-75
2022/06/20 13:55:06;;;;;;;2.63;1.23;;;;;;;;;;4975986;28;20074;-76
2022/06/20 13:57:40;;;;;;;2.42;1.02;;;;;;;;;;4977396;28;20027;-78
2022/06/20 14:00:24;;;;;;;2.20;1.15;;;;;;;;;;4976015;28;20030;-78
2022/06/20 14:03:06;;;;;;;5.68;1.50;;;;;;;;;;4976127;28;20023;-77
2022/06/20 14:05:33;;;;;;;4.57;1.33;;;;;;;;;;4977703;28;20398;-76
2022/06/20 14:08:23;;;;;;;1.42;1.13;;;;;;;;;;4976421;28;20495;-77
2022/06/20 14:10:55;;;;;;;3.03;1.23;;;;;;;;;;4976676;28;20110;-76
2022/06/20 14:13:30;;;;;;;3.13;1.50;;;;;;;;;;4975448;28;20177;-76
2022/06/20 14:16:27;;;;;;;4.75;1.45;;;;;;;;;;4976323;28;20105;-76
2022/06/20 14:19:09;;;;;;;4.72;1.30;;;;;;;;;;4974016;28;20042;-75
2022/06/20 14:21:42;;;;;;;1.60;1.10;;;;;;;;;;4976805;28;20415;-76
2022/06/20 14:24:20;;;;;;;4.78;1.30;;;;;;;;;;4977139;28;20470;-76
2022/06/20 14:26:46;;;;;;;3.30;1.38;;;;;;;;;;4976350;28;20061;-76
2022/06/20 14:29:23;;;;;;;2.13;1.27;;;;;;;;;;4975236;28;20389;-76
2022/06/20 14:32:07;;;;;;;4.53;1.83;;;;;;;;;;4960148;28;20029;-76
2022/06/20 14:37:43;;;;;;;3.50;1.15;;;;;;;;;;4976345;28;20077;-76
2022/06/20 14:40:15;;;;;;;5.50;1.30;;;;;;;;;;4976279;28;20080;-76
2022/06/20 14:42:49;;;;;;;3.88;1.50;;;;;;;;;;4959087;28;20065;-77
2022/06/20 14:45:19;;;;;;;6.63;1.50;;;;;;;;;;4976885;28;20031;-77
2022/06/20 14:48:05;;;;;;;1.70;1.13;;;;;;;;;;4975327;28;20033;-77
2022/06/20 14:50:49;;;;;;;4.25;1.60;;;;;;;;;;4976934;28;20022;-77
2022/06/20 14:53:22;;;;;;;6.50;1.40;;;;;;;;;;4960606;28;20368;-77
2022/06/20 14:56:07;;;;;;;7.32;1.30;;;;;;;;;;4959934;28;20048;-77
2022/06/20 14:58:49;;;;;;;2.38;1.33;;;;;;;;;;4976078;28;20028;-77
2022/06/20 15:01:35;;;;;;;2.85;1.20;;;;;;;;;;4977403;28;20109;-77
2022/06/20 15:04:19;;;;;;;4.60;1.48;;;;;;;;;;4958529;28;20035;-78
2022/06/20 15:06:49;;;;;;;2.42;1.20;;;;;;;;;;4974376;28;20049;-78
2022/06/20 15:09:29;;;;;;;1.88;1.10;;;;;;;;;;4974614;28;20031;-79
2022/06/20 15:12:13;;;;;;;2.22;1.08;;;;;;;;;;4974466;28;20070;-78
2022/06/20 15:15:05;;;;;;;3.85;1.33;;;;;;;;;;4975778;28;20026;-77
2022/06/20 15:18:01;;;;;;;2.65;1.30;;;;;;;;;;4964394;28;20137;-78
2022/06/20 15:20:32;;;;;;;2.88;1.42;;;;;;;;;;4975367;28;20039;-77
2022/06/20 15:23:02;;;;;;;4.78;1.38;;;;;;;;;;4958210;28;20472;-77
2022/06/20 15:25:41;;;;;;;2.90;1.25;;;;;;;;;;4974527;28;20054;-77
2022/06/20 15:28:16;;;;;;;2.28;1.02;;;;;;;;;;4957947;28;20019;-78
2022/06/20 15:31:03;;;;;;;4.55;1.30;;;;;;;;;;4957963;28;20030;-77
2022/06/20 15:33:40;;;;;;;4.30;1.40;;;;;;;;;;4975045;28;20101;-77
2022/06/20 15:36:30;;;;;;;3.13;1.27;;;;;;;;;;4974621;28;20448;-78
2022/06/20 15:39:28;;;;;;;5.65;1.90;;;;;;;;;;4959424;28;20093;-78
2022/06/20 15:42:41;;;;;;;4.07;1.92;;;;;;;;;;4974121;28;20026;-78
2022/06/20 15:45:07;;;;;;;6.43;1.90;;;;;;;;;;4966699;28;20113;-78
2022/06/20 15:47:44;;;;;;;19.75;1.75;;;;;;;;;;4975361;28;20518;-77
2022/06/20 15:50:34;;;;;;;7.25;2.28;;;;;;;;;;4972523;28;20128;-76
2022/06/20 15:53:42;;;;;;;3.92;1.60;;;;;;;;;;4973234;28;20033;-77
2022/06/20 15:56:29;;;;;;;5.07;1.60;;;;;;;;;;4973556;28;20022;-77